CPA930 RPLL-VHHH
Flight info
| Callsign | CPA930 |
|---|---|
| Flight time | N/A |
| Altitude | 38000 |
| Route | CAB2R CAB A461 NOMAN V533 BETTY |
| Aircraft | B77W/H-SDE1E2E3FGHIJ2J3J4J5M1RWXY/LB1D1 |
Departure
| Time | 2026-05-06 13:19 |
|---|---|
| Airport | Ninoy Aquino International Airport (RPLL) |
Arrival
| Time | N/A |
|---|---|
| Airport | Hong Kong International Airport (VHHH) |
| Time | Latitude | Longitude | Altitude | Speed | Heading |
|---|---|---|---|---|---|
| 2026-05-06 12:49 | 14.51938 | 121.01219 | 65 ft | 0 kts | 45° |
| 2026-05-06 13:06 | 14.51930 | 121.01210 | 63 ft | 2 kts | 47° |
| 2026-05-06 13:06 | 14.51919 | 121.01198 | 58 ft | 2 kts | 48° |
| 2026-05-06 13:07 | 14.51908 | 121.01185 | 62 ft | 2 kts | 51° |
| 2026-05-06 13:07 | 14.51898 | 121.01172 | 63 ft | 2 kts | 58° |
| 2026-05-06 13:07 | 14.51890 | 121.01157 | 63 ft | 2 kts | 79° |
| 2026-05-06 13:07 | 14.51892 | 121.01141 | 63 ft | 2 kts | 128° |
| 2026-05-06 13:08 | 14.51896 | 121.01135 | 63 ft | 0 kts | 133° |
| 2026-05-06 13:10 | 14.51890 | 121.01142 | 60 ft | 9 kts | 133° |
| 2026-05-06 13:10 | 14.51805 | 121.01233 | 68 ft | 19 kts | 135° |
| 2026-05-06 13:10 | 14.51709 | 121.01331 | 68 ft | 19 kts | 139° |
| 2026-05-06 13:10 | 14.51612 | 121.01430 | 68 ft | 19 kts | 135° |
| 2026-05-06 13:11 | 14.51518 | 121.01530 | 65 ft | 19 kts | 134° |
| 2026-05-06 13:11 | 14.51421 | 121.01627 | 64 ft | 19 kts | 136° |
| 2026-05-06 13:11 | 14.51326 | 121.01726 | 66 ft | 19 kts | 137° |
| 2026-05-06 13:11 | 14.51230 | 121.01824 | 64 ft | 19 kts | 136° |
| 2026-05-06 13:12 | 14.51134 | 121.01923 | 65 ft | 19 kts | 133° |
| 2026-05-06 13:12 | 14.51118 | 121.01939 | 67 ft | 0 kts | 136° |
| 2026-05-06 13:13 | 14.51107 | 121.01951 | 65 ft | 8 kts | 136° |
| 2026-05-06 13:13 | 14.51061 | 121.01979 | 63 ft | 8 kts | 180° |
| 2026-05-06 13:13 | 14.51018 | 121.01941 | 65 ft | 9 kts | 239° |
| 2026-05-06 13:14 | 14.50987 | 121.01888 | 65 ft | 9 kts | 238° |
| 2026-05-06 13:14 | 14.50931 | 121.01790 | 65 ft | 19 kts | 241° |
| 2026-05-06 13:14 | 14.50867 | 121.01673 | 63 ft | 19 kts | 240° |
| 2026-05-06 13:14 | 14.50803 | 121.01556 | 63 ft | 19 kts | 240° |
| 2026-05-06 13:15 | 14.50739 | 121.01440 | 66 ft | 19 kts | 240° |
| 2026-05-06 13:15 | 14.50673 | 121.01325 | 63 ft | 19 kts | 238° |
| 2026-05-06 13:15 | 14.50608 | 121.01209 | 63 ft | 19 kts | 240° |
| 2026-05-06 13:15 | 14.50566 | 121.01131 | 63 ft | 19 kts | 240° |
| 2026-05-06 13:17 | 14.50209 | 121.00493 | 64 ft | 19 kts | 239° |
| 2026-05-06 13:17 | 14.50144 | 121.00378 | 64 ft | 19 kts | 240° |
| 2026-05-06 13:17 | 14.50079 | 121.00262 | 64 ft | 19 kts | 240° |
| 2026-05-06 13:17 | 14.50015 | 121.00146 | 64 ft | 19 kts | 240° |
| 2026-05-06 13:18 | 14.49950 | 121.00030 | 63 ft | 19 kts | 240° |
| 2026-05-06 13:18 | 14.49885 | 120.99975 | 66 ft | 14 kts | 183° |
| 2026-05-06 13:18 | 14.49817 | 121.00034 | 68 ft | 14 kts | 96° |
| 2026-05-06 13:18 | 14.49840 | 121.00103 | 63 ft | 0 kts | 60° |
| 2026-05-06 13:19 | 14.49842 | 121.00105 | 63 ft | 3 kts | 60° |
| 2026-05-06 13:19 | 14.50004 | 121.00400 | 64 ft | 108 kts | 60° |
| 2026-05-06 13:19 | 14.50584 | 121.01441 | 254 ft | 212 kts | 62° |
| 2026-05-06 13:19 | 14.51389 | 121.02822 | 1704 ft | 227 kts | 57° |
| 2026-05-06 13:20 | 14.52241 | 121.04250 | 3278 ft | 239 kts | 60° |
| 2026-05-06 13:20 | 14.53064 | 121.05782 | 4326 ft | 248 kts | 61° |
| 2026-05-06 13:20 | 14.53912 | 121.07365 | 5277 ft | 256 kts | 61° |
| 2026-05-06 13:20 | 14.54786 | 121.08977 | 6302 ft | 259 kts | 61° |
| 2026-05-06 13:21 | 14.55678 | 121.10600 | 7286 ft | 261 kts | 60° |
| 2026-05-06 13:21 | 14.56707 | 121.12136 | 8143 ft | 265 kts | 44° |
| 2026-05-06 13:21 | 14.58295 | 121.13135 | 9041 ft | 271 kts | 24° |
| 2026-05-06 13:21 | 14.60141 | 121.13558 | 9951 ft | 277 kts | 6° |
| 2026-05-06 13:22 | 14.62087 | 121.13567 | 10778 ft | 282 kts | 1° |
| 2026-05-06 13:22 | 14.64069 | 121.13523 | 11598 ft | 288 kts | 1° |
| 2026-05-06 13:22 | 14.66089 | 121.13502 | 12419 ft | 293 kts | 2° |
| 2026-05-06 13:22 | 14.68140 | 121.13500 | 13227 ft | 297 kts | 2° |
| 2026-05-06 13:23 | 14.70192 | 121.13455 | 13969 ft | 301 kts | 355° |
| 2026-05-06 13:23 | 14.72244 | 121.12872 | 14641 ft | 309 kts | 341° |
| 2026-05-06 13:23 | 14.74268 | 121.12101 | 15466 ft | 311 kts | 341° |
| 2026-05-06 13:23 | 14.74954 | 121.11840 | 15747 ft | 312 kts | 341° |
| 2026-05-06 13:24 | 14.77000 | 121.11070 | 16593 ft | 314 kts | 341° |